Terminal Aerodrome Forecast
Issued by NWS Lake Charles, LA

Home | Current Version | Previous Version | Text Only | Print | Product List | Glossary On
Versions: 1 2 3 4 5 6 7 8 9 10 11 12 13 14 15 16 17
000
FTUS44 KLCH 022014 AAB
TAFLCH
TAF AMD
KLCH 022014Z 0220/0318 07012KT P6SM VCSH OVC080
     FM030000 09014KT P6SM VCSH OVC070
     FM030300 09017G25KT P6SM -RA BKN025 OVC050
     FM031400 09018G25KT 5SM -RA BR OVC015=

USA.gov is the U.S. government's official web portal to all federal, state and local government web resources and services.